createdAt,value
2023-04-15T00:01:59.964Z,98973.72
2023-04-15T00:04:31.735Z,98972.40
2023-04-15T00:07:02.987Z,98967.61
2023-04-15T00:09:33.385Z,98960.35
2023-04-15T00:12:03.683Z,98964.31
2023-04-15T00:14:34.818Z,98961.31
2023-04-15T00:17:05.606Z,98962.86
2023-04-15T00:19:35.928Z,98963.55
2023-04-15T00:22:06.324Z,98967.00
2023-04-15T00:24:36.912Z,98960.82
2023-04-15T00:27:07.252Z,98961.76
2023-04-15T00:29:37.505Z,98958.55
2023-04-15T00:32:08.291Z,98963.71
2023-04-15T00:34:38.665Z,98962.45
2023-04-15T00:37:10.954Z,98967.46
2023-04-15T00:39:41.476Z,98963.40
2023-04-15T00:42:12.399Z,98956.89
2023-04-15T00:44:43.661Z,98962.42
2023-04-15T00:47:14.611Z,98957.98
2023-04-15T00:49:44.961Z,98965.07
2023-04-15T00:52:15.471Z,98963.63
2023-04-15T00:54:46.163Z,98962.39
2023-04-15T00:57:16.803Z,98971.11
2023-04-15T00:59:47.178Z,98970.59
2023-04-15T01:02:18.813Z,98969.72
2023-04-15T01:04:49.385Z,98968.67
2023-04-15T01:07:20.668Z,98966.91
2023-04-15T01:09:51.079Z,98971.11
2023-04-15T01:12:21.564Z,98970.06
2023-04-15T01:14:52.061Z,98969.38
2023-04-15T01:17:22.480Z,98970.92
2023-04-15T01:19:53.588Z,98965.52
2023-04-15T01:22:24.482Z,98963.54
2023-04-15T01:25:04.719Z,98961.42
2023-04-15T01:27:36.380Z,98960.91
2023-04-15T01:30:08.488Z,98967.92
2023-04-15T01:32:39.458Z,98967.03
2023-04-15T01:35:10.645Z,98969.80
2023-04-15T01:37:41.080Z,98967.31
2023-04-15T01:40:12.409Z,98971.14
2023-04-15T01:42:42.734Z,98974.24
2023-04-15T01:45:14.366Z,98978.64
2023-04-15T01:47:45.680Z,98975.98
2023-04-15T01:50:16.537Z,98978.75
2023-04-15T01:52:47.022Z,98981.88
2023-04-15T01:55:17.314Z,98979.76
2023-04-15T01:57:49.250Z,98975.90
2023-04-15T02:00:19.741Z,98971.54
2023-04-15T02:02:50.464Z,98972.20
2023-04-15T02:05:22.619Z,98977.96
2023-04-15T02:07:53.771Z,98976.85
2023-04-15T02:10:24.169Z,98980.81
2023-04-15T02:12:55.339Z,98981.67
2023-04-15T02:15:25.969Z,98984.05
2023-04-15T02:17:56.313Z,98987.48
2023-04-15T02:20:26.714Z,98989.21
2023-04-15T02:22:57.038Z,98987.33
2023-04-15T02:25:27.384Z,98984.48
2023-04-15T02:27:59.970Z,98987.80
2023-04-15T02:30:30.326Z,98993.19
2023-04-15T02:33:00.841Z,98995.27
2023-04-15T02:35:31.227Z,98996.43
2023-04-15T02:38:03.177Z,98995.03
2023-04-15T02:40:33.461Z,98997.44
2023-04-15T02:43:05.461Z,98993.38
2023-04-15T02:45:36.002Z,99002.58
2023-04-15T02:48:08.136Z,99004.78
2023-04-15T02:50:40.924Z,99004.39
2023-04-15T02:53:13.449Z,99003.98
2023-04-15T02:55:43.843Z,99009.65
2023-04-15T02:58:14.460Z,99006.39
2023-04-15T03:00:44.775Z,99007.86
2023-04-15T03:03:15.615Z,99010.61
2023-04-15T03:05:46.729Z,99015.91
2023-04-15T03:08:17.331Z,99018.79
2023-04-15T03:10:47.662Z,99023.86
2023-04-15T03:13:17.958Z,99029.14
2023-04-15T03:15:49.677Z,99033.74
2023-04-15T03:18:19.978Z,99042.79
2023-04-15T03:20:50.733Z,99053.11
2023-04-15T03:23:21.496Z,99060.60
2023-04-15T03:25:52.285Z,99056.27
2023-04-15T03:28:22.688Z,99048.88
2023-04-15T03:30:53.097Z,99053.71
2023-04-15T03:33:23.439Z,99055.44
2023-04-15T03:35:55.284Z,99062.39
2023-04-15T03:38:25.910Z,99062.00
2023-04-15T03:40:56.302Z,99062.67
2023-04-15T03:43:26.616Z,99058.44
2023-04-15T03:45:56.938Z,99070.86
2023-04-15T03:48:27.452Z,99073.77
2023-04-15T03:50:57.795Z,99080.17
2023-04-15T03:53:28.151Z,99086.42
2023-04-15T03:55:58.477Z,99091.14
2023-04-15T03:58:28.908Z,99093.06
2023-04-15T04:00:59.334Z,99096.34
2023-04-15T04:03:29.785Z,99105.96
2023-04-15T04:06:00.379Z,99109.09
2023-04-15T04:08:30.868Z,99109.95
2023-04-15T04:11:01.538Z,99107.63
2023-04-15T04:13:31.863Z,99118.37
2023-04-15T04:16:02.305Z,99123.86
2023-04-15T04:18:32.778Z,99123.69
2023-04-15T04:21:03.432Z,99120.52
2023-04-15T04:23:33.969Z,99133.23
2023-04-15T04:26:04.301Z,99135.42
2023-04-15T04:28:35.286Z,99136.17
2023-04-15T04:31:05.826Z,99138.03
2023-04-15T04:33:36.174Z,99142.00
2023-04-15T04:36:08.059Z,99149.96
2023-04-15T04:38:38.340Z,99164.85
2023-04-15T04:41:10.737Z,99164.57
2023-04-15T04:43:41.075Z,99167.94
2023-04-15T04:46:12.123Z,99174.64
2023-04-15T04:48:42.884Z,99178.48
2023-04-15T04:51:13.955Z,99184.78
2023-04-15T04:53:44.397Z,99180.42
2023-04-15T04:56:14.696Z,99184.08
2023-04-15T04:58:44.986Z,99183.52
2023-04-15T05:01:15.546Z,99189.75
2023-04-15T05:03:46.000Z,99188.73
2023-04-15T05:06:16.363Z,99188.90
2023-04-15T05:08:47.547Z,99189.58
2023-04-15T05:11:17.876Z,99194.10
2023-04-15T05:13:48.223Z,99188.95
2023-04-15T05:16:19.961Z,99188.13
2023-04-15T05:18:50.269Z,99192.52
2023-04-15T05:21:21.139Z,99194.11
2023-04-15T05:23:51.524Z,99196.61
2023-04-15T05:26:22.475Z,99194.73
2023-04-15T05:28:52.827Z,99194.80
2023-04-15T05:31:23.256Z,99195.69
2023-04-15T05:33:53.683Z,99196.46
2023-04-15T05:36:24.030Z,99203.39
2023-04-15T05:38:54.339Z,99209.76
2023-04-15T05:41:24.741Z,99212.30
2023-04-15T05:43:55.123Z,99220.10
2023-04-15T05:46:25.495Z,99224.25
2023-04-15T05:48:58.044Z,99220.67
2023-04-15T05:51:28.650Z,99218.86
2023-04-15T05:53:58.937Z,99219.88
2023-04-15T05:56:29.285Z,99232.34
2023-04-15T05:58:59.730Z,99235.07
2023-04-15T06:01:30.431Z,99237.44
2023-04-15T06:04:00.857Z,99233.96
2023-04-15T06:06:32.517Z,99234.84
2023-04-15T06:09:03.043Z,99236.14
2023-04-15T06:11:33.775Z,99240.48
2023-04-15T06:14:04.037Z,99248.45
2023-04-15T06:16:34.416Z,99250.14
2023-04-15T06:19:04.786Z,99254.48
2023-04-15T06:21:35.080Z,99248.84
2023-04-15T06:24:05.704Z,99256.82
2023-04-15T06:26:36.154Z,99262.02
2023-04-15T06:29:06.736Z,99261.79
2023-04-15T06:31:37.399Z,99264.86
2023-04-15T06:34:07.767Z,99268.61
2023-04-15T06:36:38.062Z,99267.34
2023-04-15T06:39:08.767Z,99265.85
2023-04-15T06:41:39.079Z,99270.50
2023-04-15T06:44:09.865Z,99269.16
2023-04-15T06:46:40.649Z,99270.09
2023-04-15T06:49:11.513Z,99266.20
2023-04-15T06:51:41.962Z,99274.45
2023-04-15T06:54:12.675Z,99273.20
2023-04-15T06:56:43.038Z,99269.69
2023-04-15T06:59:14.321Z,99275.04
2023-04-15T07:01:44.767Z,99275.98
2023-04-15T07:04:15.436Z,99279.02
2023-04-15T07:06:46.117Z,99279.05
2023-04-15T07:09:16.558Z,99277.15
2023-04-15T07:11:46.866Z,99280.42
2023-04-15T07:14:17.177Z,99284.33
2023-04-15T07:16:47.506Z,99287.27
2023-04-15T07:19:17.818Z,99290.41
2023-04-15T07:21:48.217Z,99287.23
2023-04-15T07:24:20.668Z,99288.98
2023-04-15T07:26:51.145Z,99289.66
2023-04-15T07:29:21.581Z,99292.80
2023-04-15T07:31:51.909Z,99293.34
2023-04-15T07:34:22.337Z,99296.17
2023-04-15T07:36:52.740Z,99300.20
2023-04-15T07:39:23.433Z,99303.23
2023-04-15T07:41:53.784Z,99304.27
2023-04-15T07:44:24.190Z,99309.17
2023-04-15T07:46:54.666Z,99304.06
2023-04-15T07:49:25.156Z,99306.20
2023-04-15T07:51:57.668Z,99303.27
2023-04-15T07:54:28.483Z,99303.62
2023-04-15T07:56:59.008Z,99306.00
2023-04-15T07:59:30.214Z,99305.08
2023-04-15T08:02:00.681Z,99304.88
2023-04-15T08:04:31.388Z,99298.41
2023-04-15T08:07:02.093Z,99305.16
2023-04-15T08:09:32.458Z,99309.52
2023-04-15T08:12:02.870Z,99309.77
2023-04-15T08:14:33.249Z,99312.08
2023-04-15T08:17:04.206Z,99312.69
2023-04-15T08:19:34.634Z,99314.35
2023-04-15T08:22:05.207Z,99318.24
2023-04-15T08:24:41.309Z,99322.36
2023-04-15T08:27:11.656Z,99328.09
2023-04-15T08:29:42.063Z,99331.44
2023-04-15T08:32:12.455Z,99331.66
2023-04-15T08:34:42.769Z,99334.74
2023-04-15T08:37:13.549Z,99332.75
2023-04-15T08:39:45.395Z,99338.86
2023-04-15T08:42:24.437Z,99332.52
2023-04-15T08:44:56.305Z,99335.23
2023-04-15T08:47:30.848Z,99339.58
2023-04-15T08:50:04.402Z,99342.02
2023-04-15T08:52:34.704Z,99339.59
2023-04-15T08:55:06.218Z,99344.73
2023-04-15T08:57:36.823Z,99354.11
2023-04-15T09:00:09.423Z,99357.05
2023-04-15T09:02:40.342Z,99356.98
2023-04-15T09:05:12.945Z,99357.33
2023-04-15T09:07:43.260Z,99361.14
2023-04-15T09:10:14.433Z,99355.26
2023-04-15T09:12:46.749Z,99355.20
2023-04-15T09:15:18.318Z,99359.81
2023-04-15T09:17:49.093Z,99358.13
2023-04-15T09:20:19.864Z,99353.36
2023-04-15T09:22:51.972Z,99355.02
2023-04-15T09:25:34.867Z,99352.22
2023-04-15T09:28:05.742Z,99351.46
2023-04-15T09:30:37.024Z,99356.21
2023-04-15T09:33:09.044Z,99361.08
2023-04-15T09:35:39.659Z,99358.32
2023-04-15T09:38:13.115Z,99362.89
2023-04-15T09:40:44.473Z,99359.23
2023-04-15T09:43:16.879Z,99355.85
2023-04-15T09:45:53.979Z,99362.65
2023-04-15T09:48:29.185Z,99361.67
2023-04-15T09:51:02.785Z,99368.08
2023-04-15T09:53:38.345Z,99371.80
2023-04-15T09:56:10.995Z,99369.27
2023-04-15T09:58:42.792Z,99374.89
2023-04-15T10:01:13.405Z,99378.91
2023-04-15T10:03:50.332Z,99375.64
2023-04-15T10:06:21.247Z,99380.32
2023-04-15T10:08:52.087Z,99378.18
2023-04-15T10:11:24.135Z,99376.53
2023-04-15T10:13:55.642Z,99370.77
2023-04-15T10:16:29.424Z,99372.00
2023-04-15T10:19:09.622Z,99373.73
2023-04-15T10:21:40.539Z,99379.63
2023-04-15T10:24:11.708Z,99381.02
2023-04-15T10:26:42.491Z,99374.58
2023-04-15T10:29:13.384Z,99374.85
2023-04-15T10:31:44.876Z,99376.64
2023-04-15T10:34:16.701Z,99379.02
2023-04-15T10:36:47.570Z,99382.13
2023-04-15T10:39:41.591Z,99381.37
2023-04-15T10:42:15.472Z,99381.60
2023-04-15T10:44:49.619Z,99385.52
2023-04-15T10:47:22.494Z,99379.66
2023-04-15T10:49:58.629Z,99381.36
2023-04-15T10:52:30.097Z,99387.55
2023-04-15T10:55:16.661Z,99387.67
2023-04-15T10:57:52.931Z,99394.58
2023-04-15T11:00:26.364Z,99397.52
2023-04-15T11:03:01.271Z,99395.83
2023-04-15T11:05:52.141Z,99398.35
2023-04-15T11:08:54.303Z,99405.70
2023-04-15T11:11:24.847Z,99409.20
2023-04-15T11:13:57.938Z,99402.84
2023-04-15T11:16:29.064Z,99404.62
2023-04-15T11:18:59.479Z,99407.50
2023-04-15T11:21:30.689Z,99409.11
2023-04-15T11:24:02.291Z,99406.27
2023-04-15T11:26:33.698Z,99403.77
2023-04-15T11:29:05.658Z,99403.84
2023-04-15T11:31:36.198Z,99408.77
2023-04-15T11:34:07.176Z,99405.28
2023-04-15T11:36:37.892Z,99408.63
2023-04-15T11:39:09.905Z,99410.20
2023-04-15T11:41:43.316Z,99408.96
2023-04-15T11:44:20.149Z,99414.15
2023-04-15T11:46:49.028Z,99411.29
2023-04-15T11:49:31.376Z,99412.04
2023-04-15T11:52:01.789Z,99414.92
2023-04-15T11:54:32.298Z,99408.87
2023-04-15T11:57:03.251Z,99414.09
2023-04-15T11:59:46.357Z,99417.77
2023-04-15T12:02:17.411Z,99414.41
2023-04-15T12:04:48.275Z,99418.09
2023-04-15T12:07:18.654Z,99423.06
2023-04-15T12:09:57.873Z,99426.38
2023-04-15T12:12:31.485Z,99429.80
2023-04-15T12:15:01.846Z,99431.95
2023-04-15T12:17:32.404Z,99430.88
2023-04-15T12:20:28.045Z,99433.57
2023-04-15T12:23:08.274Z,99437.09
2023-04-15T12:25:38.936Z,99426.48
2023-04-15T12:28:15.335Z,99417.80
2023-04-15T12:30:53.635Z,99414.29
2023-04-15T12:33:23.991Z,99422.04
2023-04-15T12:35:54.317Z,99425.91
2023-04-15T12:38:24.890Z,99428.51
2023-04-15T12:40:55.294Z,99430.20
2023-04-15T12:43:26.411Z,99429.48
2023-04-15T12:45:56.890Z,99424.84
2023-04-15T12:48:27.577Z,99427.44
2023-04-15T12:50:57.880Z,99425.56
2023-04-15T12:53:28.781Z,99422.84
2023-04-15T12:55:59.131Z,99423.42
2023-04-15T12:58:29.472Z,99417.34
2023-04-15T13:00:59.857Z,99417.64
2023-04-15T13:03:30.416Z,99417.52
2023-04-15T13:06:02.285Z,99417.55
2023-04-15T13:08:32.628Z,99420.85
2023-04-15T13:11:03.084Z,99421.86
2023-04-15T13:13:33.869Z,99423.11
2023-04-15T13:16:04.267Z,99432.46
2023-04-15T13:18:34.951Z,99424.44
2023-04-15T13:21:07.531Z,99418.85
2023-04-15T13:23:37.909Z,99420.73
2023-04-15T13:26:08.366Z,99416.38
2023-04-15T13:28:39.049Z,99412.12
2023-04-15T13:31:09.446Z,99408.77
2023-04-15T13:33:39.869Z,99407.23
2023-04-15T13:36:10.830Z,99409.75
2023-04-15T13:38:41.505Z,99405.17
2023-04-15T13:41:11.926Z,99406.04
2023-04-15T13:43:42.321Z,99404.53
2023-04-15T13:46:12.942Z,99407.37
2023-04-15T13:48:43.441Z,99401.90
2023-04-15T13:51:13.792Z,99396.41
2023-04-15T13:53:44.156Z,99398.60
2023-04-15T13:56:14.490Z,99397.10
2023-04-15T13:58:44.807Z,99395.29
2023-04-15T14:01:15.369Z,99396.22
2023-04-15T14:03:46.087Z,99393.35
2023-04-15T14:06:16.600Z,99390.05
2023-04-15T14:08:47.575Z,99386.33
2023-04-15T14:11:17.892Z,99391.27
2023-04-15T14:13:48.224Z,99387.35
2023-04-15T14:16:18.553Z,99395.56
2023-04-15T14:18:48.981Z,99395.70
2023-04-15T14:21:19.313Z,99395.10
2023-04-15T14:23:49.623Z,99398.46
2023-04-15T14:26:20.319Z,99405.90
2023-04-15T14:28:50.929Z,99410.34
2023-04-15T14:31:21.500Z,99403.92
2023-04-15T14:33:53.094Z,99409.11
2023-04-15T14:36:23.581Z,99409.80
2023-04-15T14:38:53.923Z,99416.09
2023-04-15T14:41:24.342Z,99424.27
2023-04-15T14:43:54.654Z,99427.02
2023-04-15T14:46:25.940Z,99428.98
2023-04-15T14:48:59.030Z,99433.74
2023-04-15T14:51:29.393Z,99439.45
2023-04-15T14:53:59.900Z,99443.09
2023-04-15T14:56:30.240Z,99446.06
2023-04-15T14:59:01.062Z,99446.66
2023-04-15T15:01:31.579Z,99448.25
2023-04-15T15:04:02.267Z,99447.11
2023-04-15T15:06:32.860Z,99453.58
2023-04-15T15:09:03.852Z,99451.35
2023-04-15T15:11:34.461Z,99450.80
2023-04-15T15:14:04.715Z,99452.15
2023-04-15T15:16:35.308Z,99452.30
2023-04-15T15:19:06.439Z,99457.77
2023-04-15T15:21:37.465Z,99460.05
2023-04-15T15:24:08.517Z,99466.39
2023-04-15T15:26:40.206Z,99463.52
2023-04-15T15:29:10.644Z,99473.53
2023-04-15T15:31:40.916Z,99476.05
2023-04-15T15:34:11.790Z,99479.15
2023-04-15T15:36:42.366Z,99485.16
2023-04-15T15:39:12.922Z,99485.59
2023-04-15T15:41:43.247Z,99495.73
2023-04-15T15:44:13.700Z,99505.36
2023-04-15T15:46:44.296Z,99512.78
2023-04-15T15:49:15.693Z,99511.54
2023-04-15T15:51:46.704Z,99517.90
2023-04-15T15:54:17.118Z,99526.15
2023-04-15T15:56:47.467Z,99520.56
2023-04-15T15:59:17.810Z,99527.63
2023-04-15T16:01:50.504Z,99527.60
2023-04-15T16:04:21.457Z,99532.03
2023-04-15T16:06:52.288Z,99537.36
2023-04-15T16:09:22.654Z,99539.48
2023-04-15T16:11:53.231Z,99543.79
2023-04-15T16:14:25.049Z,99546.58
2023-04-15T16:16:56.226Z,99548.98
2023-04-15T16:19:26.720Z,99549.47
2023-04-15T16:21:57.569Z,99548.55
2023-04-15T16:24:27.932Z,99552.25
2023-04-15T16:26:59.382Z,99556.92
2023-04-15T16:29:29.864Z,99558.52
2023-04-15T16:32:00.296Z,99562.16
2023-04-15T16:34:30.651Z,99565.10
2023-04-15T16:37:00.977Z,99566.02
2023-04-15T16:39:31.470Z,99573.79
2023-04-15T16:42:02.338Z,99570.79
2023-04-15T16:44:32.776Z,99579.58
2023-04-15T16:47:03.383Z,99586.02
2023-04-15T16:49:34.964Z,99587.30
2023-04-15T16:52:05.749Z,99592.21
2023-04-15T16:54:41.223Z,99596.21
2023-04-15T16:57:12.045Z,99595.76
2023-04-15T16:59:42.370Z,99598.64
2023-04-15T17:02:14.267Z,99599.81
2023-04-15T17:04:44.669Z,99605.70
2023-04-15T17:07:15.029Z,99607.83
2023-04-15T17:09:45.919Z,99609.99
2023-04-15T17:12:16.555Z,99617.64
2023-04-15T17:14:46.932Z,99617.58
2023-04-15T17:17:17.244Z,99623.70
2023-04-15T17:19:47.500Z,99627.96
2023-04-15T17:22:18.036Z,99626.29
2023-04-15T17:24:48.341Z,99635.89
2023-04-15T17:27:18.684Z,99639.48
2023-04-15T17:29:49.138Z,99645.52
2023-04-15T17:32:19.542Z,99644.55
2023-04-15T17:34:51.550Z,99653.71
2023-04-15T17:37:22.012Z,99654.14
2023-04-15T17:39:52.395Z,99660.09
2023-04-15T17:42:23.078Z,99660.98
2023-04-15T17:44:53.419Z,99664.84
2023-04-15T17:47:23.870Z,99668.56
2023-04-15T17:49:54.160Z,99672.39
2023-04-15T17:52:24.486Z,99678.90
2023-04-15T17:54:55.889Z,99680.95
2023-04-15T17:57:26.278Z,99687.64
2023-04-15T17:59:56.564Z,99699.72
2023-04-15T18:02:27.276Z,99701.98
2023-04-15T18:04:58.036Z,99709.33
2023-04-15T18:07:28.647Z,99716.17
2023-04-15T18:09:58.967Z,99725.68
2023-04-15T18:12:29.272Z,99729.36
2023-04-15T18:14:59.721Z,99731.80
2023-04-15T18:17:30.170Z,99744.59
2023-04-15T18:20:00.566Z,99745.85
2023-04-15T18:22:31.062Z,99750.45
2023-04-15T18:25:04.310Z,99754.57
2023-04-15T18:27:35.808Z,99755.16
2023-04-15T18:30:07.267Z,99761.23
2023-04-15T18:32:37.839Z,99766.91
2023-04-15T18:35:09.975Z,99769.46
2023-04-15T18:37:40.495Z,99774.33
2023-04-15T18:40:12.286Z,99778.44
2023-04-15T18:42:42.693Z,99780.66
2023-04-15T18:45:13.272Z,99778.70
2023-04-15T18:47:43.655Z,99785.73
2023-04-15T18:50:14.248Z,99786.50
2023-04-15T18:52:44.605Z,99784.98
2023-04-15T18:55:16.535Z,99793.02
2023-04-15T18:57:48.642Z,99795.54
2023-04-15T19:00:19.585Z,99793.63
2023-04-15T19:02:50.241Z,99800.16
2023-04-15T19:05:21.069Z,99803.89
2023-04-15T19:07:52.492Z,99804.64
2023-04-15T19:10:23.289Z,99806.59
2023-04-15T19:12:53.627Z,99810.86
2023-04-15T19:15:24.066Z,99813.88
2023-04-15T19:17:54.498Z,99819.20
2023-04-15T19:20:24.945Z,99820.34
2023-04-15T19:22:57.151Z,99822.34
2023-04-15T19:25:27.679Z,99823.60
2023-04-15T19:27:59.931Z,99825.24
2023-04-15T19:30:32.405Z,99829.98
2023-04-15T19:33:02.935Z,99837.19
2023-04-15T19:35:33.845Z,99833.40
2023-04-15T19:38:05.475Z,99839.56
2023-04-15T19:40:35.877Z,99839.73
2023-04-15T19:43:06.254Z,99837.98
2023-04-15T19:45:36.818Z,99842.36
2023-04-15T19:48:07.519Z,99838.34
2023-04-15T19:50:38.303Z,99841.71
2023-04-15T19:53:08.707Z,99847.86
2023-04-15T19:55:39.332Z,99848.36
2023-04-15T19:58:09.737Z,99851.34
2023-04-15T20:00:42.890Z,99851.87
2023-04-15T20:03:13.406Z,99854.52
2023-04-15T20:05:44.009Z,99852.48
2023-04-15T20:08:14.442Z,99854.61
2023-04-15T20:10:44.783Z,99858.84
2023-04-15T20:13:15.325Z,99859.39
2023-04-15T20:15:46.438Z,99858.19
2023-04-15T20:18:16.835Z,99862.22
2023-04-15T20:20:48.210Z,99862.25
2023-04-15T20:23:18.616Z,99868.42
2023-04-15T20:25:48.960Z,99873.55
2023-04-15T20:28:19.354Z,99874.63
2023-04-15T20:30:49.891Z,99874.84
2023-04-15T20:33:22.205Z,99876.11
2023-04-15T20:35:52.538Z,99879.84
2023-04-15T20:38:24.402Z,99881.46
2023-04-15T20:40:54.857Z,99886.25
2023-04-15T20:43:29.127Z,99882.26
2023-04-15T20:46:06.981Z,99883.14
2023-04-15T20:48:47.930Z,99886.69
2023-04-15T20:51:18.290Z,99886.39
2023-04-15T20:53:49.155Z,99885.61
2023-04-15T20:56:19.539Z,99895.14
2023-04-15T20:58:52.507Z,99893.98
2023-04-15T21:01:23.883Z,99894.39
2023-04-15T21:03:54.774Z,99897.77
2023-04-15T21:06:26.775Z,99903.03
2023-04-15T21:08:57.127Z,99908.02
2023-04-15T21:11:46.442Z,99912.46
2023-04-15T21:14:17.851Z,99914.83
2023-04-15T21:16:48.330Z,99919.45
2023-04-15T21:19:18.679Z,99918.28
2023-04-15T21:21:48.978Z,99923.77
2023-04-15T21:24:19.351Z,99925.40
2023-04-15T21:26:50.080Z,99925.99
2023-04-15T21:29:20.641Z,99927.67
2023-04-15T21:31:51.194Z,99931.80
2023-04-15T21:34:21.612Z,99927.54
2023-04-15T21:36:51.880Z,99926.90
2023-04-15T21:39:22.771Z,99929.98
2023-04-15T21:41:53.086Z,99928.66
2023-04-15T21:44:23.449Z,99934.64
2023-04-15T21:46:55.242Z,99931.73
2023-04-15T21:49:25.709Z,99933.17
2023-04-15T21:52:00.905Z,99940.05
2023-04-15T21:54:31.343Z,99938.20
2023-04-15T21:57:01.767Z,99936.36
2023-04-15T21:59:32.150Z,99941.15
2023-04-15T22:02:02.685Z,99942.45
2023-04-15T22:04:33.153Z,99941.94
2023-04-15T22:07:03.605Z,99947.71
2023-04-15T22:09:33.958Z,99952.63
2023-04-15T22:12:06.350Z,99956.13
2023-04-15T22:14:36.737Z,99964.52
2023-04-15T22:17:07.086Z,99966.84
2023-04-15T22:19:37.381Z,99968.94
2023-04-15T22:22:07.700Z,99972.29
2023-04-15T22:24:40.435Z,99973.50
2023-04-15T22:27:11.028Z,99974.75
2023-04-15T22:29:41.399Z,99979.98
2023-04-15T22:32:11.765Z,99981.22
2023-04-15T22:34:42.714Z,99983.18
2023-04-15T22:37:13.640Z,99987.08
2023-04-15T22:39:43.990Z,99989.81
2023-04-15T22:42:14.291Z,99994.49
2023-04-15T22:44:44.608Z,100000.77
2023-04-15T22:47:14.933Z,100008.77
2023-04-15T22:49:45.998Z,100003.12
2023-04-15T22:52:29.552Z,100009.39
2023-04-15T22:55:01.075Z,100019.41
2023-04-15T22:57:31.473Z,100025.40
2023-04-15T23:00:01.963Z,100020.35
2023-04-15T23:02:33.388Z,100021.94
2023-04-15T23:05:12.425Z,100025.44
2023-04-15T23:07:43.636Z,100021.30
2023-04-15T23:10:14.246Z,100024.61
2023-04-15T23:12:45.185Z,100026.55
2023-04-15T23:15:15.810Z,100027.30
2023-04-15T23:17:46.159Z,100026.50
2023-04-15T23:20:16.811Z,100024.84
2023-04-15T23:22:47.296Z,100026.84
2023-04-15T23:25:17.682Z,100028.31
2023-04-15T23:27:48.454Z,100027.34
2023-04-15T23:30:19.080Z,100024.45
2023-04-15T23:32:49.529Z,100025.90
2023-04-15T23:35:20.051Z,100024.75
2023-04-15T23:37:50.373Z,100024.14
2023-04-15T23:40:20.845Z,100028.11
2023-04-15T23:42:51.806Z,100029.50
2023-04-15T23:45:22.193Z,100031.11
2023-04-15T23:47:52.656Z,100029.68
2023-04-15T23:50:24.054Z,100032.59
2023-04-15T23:52:54.446Z,100034.38
2023-04-15T23:55:24.821Z,100034.85
2023-04-15T23:57:55.215Z,100037.20
